createdAt,value
2017-10-23T00:00:27.965Z,11.50
2017-10-23T00:02:55.408Z,13.37
2017-10-23T00:05:22.882Z,8.77
2017-10-23T00:07:50.362Z,8.10
2017-10-23T00:10:17.830Z,11.30
2017-10-23T00:12:45.299Z,7.07
2017-10-23T00:15:12.763Z,9.30
2017-10-23T00:17:40.262Z,6.70
2017-10-23T00:20:07.724Z,11.10
2017-10-23T00:22:35.211Z,4.43
2017-10-23T00:25:02.694Z,12.93
2017-10-23T00:27:30.184Z,6.40
2017-10-23T00:29:57.674Z,15.53
2017-10-23T00:32:25.134Z,9.30
2017-10-23T00:34:52.625Z,10.03
2017-10-23T00:37:20.100Z,10.80
2017-10-23T00:39:48.334Z,17.23
2017-10-23T00:42:15.798Z,17.53
2017-10-23T00:44:43.263Z,7.90
2017-10-23T00:47:11.489Z,4.20
2017-10-23T00:49:38.995Z,7.30
2017-10-23T00:52:06.476Z,5.07
2017-10-23T00:54:33.953Z,21.37
2017-10-23T00:57:02.214Z,8.03
2017-10-23T00:59:29.691Z,7.97
2017-10-23T01:01:57.518Z,9.83
2017-10-23T01:04:24.992Z,12.37
2017-10-23T01:06:52.534Z,4.70
2017-10-23T01:09:20.007Z,11.10
2017-10-23T01:11:48.249Z,9.33
2017-10-23T01:14:15.718Z,6.87
2017-10-23T01:16:43.173Z,8.10
2017-10-23T01:19:10.669Z,7.87
2017-10-23T01:21:38.902Z,7.70
2017-10-23T01:24:06.665Z,8.13
2017-10-23T01:26:34.113Z,7.73
2017-10-23T01:29:01.580Z,10.97
2017-10-23T01:31:29.066Z,11.90
2017-10-23T01:33:57.290Z,6.23
2017-10-23T01:36:24.767Z,7.40
2017-10-23T01:38:52.216Z,13.20
2017-10-23T01:41:19.710Z,6.60
2017-10-23T01:43:47.184Z,13.07
2017-10-23T01:46:14.629Z,11.37
2017-10-23T01:48:42.875Z,12.77
2017-10-23T01:51:10.336Z,11.00
2017-10-23T01:53:37.823Z,10.30
2017-10-23T01:56:05.278Z,7.97
2017-10-23T01:58:33.533Z,7.23
2017-10-23T02:01:01.000Z,9.70
2017-10-23T02:03:28.469Z,15.50
2017-10-23T02:05:56.694Z,10.83
2017-10-23T02:08:24.162Z,8.13
2017-10-23T02:10:51.634Z,7.37
2017-10-23T02:13:19.092Z,14.80
2017-10-23T02:15:46.579Z,8.53
2017-10-23T02:18:14.806Z,9.07
2017-10-23T02:20:42.298Z,12.47
2017-10-23T02:23:10.554Z,20.07
2017-10-23T02:25:38.012Z,9.17
2017-10-23T02:28:05.509Z,4.97
2017-10-23T02:30:32.982Z,7.37
2017-10-23T02:33:00.490Z,11.23
2017-10-23T02:35:27.956Z,13.07
2017-10-23T02:37:56.205Z,16.90
2017-10-23T02:40:23.689Z,8.60
2017-10-23T02:42:51.918Z,10.83
2017-10-23T02:45:19.392Z,11.00
2017-10-23T02:47:46.857Z,18.33
2017-10-23T02:50:14.338Z,7.70
2017-10-23T02:52:42.583Z,12.33
2017-10-23T02:55:10.064Z,8.33
2017-10-23T02:57:37.509Z,10.70
2017-10-23T03:00:04.999Z,10.60
2017-10-23T03:02:33.245Z,14.80
2017-10-23T03:05:00.709Z,11.63
2017-10-23T03:07:28.170Z,7.00
2017-10-23T03:09:55.631Z,9.90
2017-10-23T03:12:23.860Z,12.20
2017-10-23T03:14:52.129Z,7.10
2017-10-23T03:17:19.603Z,14.30
2017-10-23T03:19:47.071Z,5.50
2017-10-23T03:22:14.622Z,5.50
2017-10-23T03:24:42.083Z,10.33
2017-10-23T03:27:09.561Z,11.70
2017-10-23T03:29:37.032Z,7.63
2017-10-23T03:32:05.270Z,13.50
2017-10-23T03:34:32.755Z,10.23
2017-10-23T03:37:00.200Z,8.70
2017-10-23T03:39:27.664Z,11.97
2017-10-23T03:41:55.910Z,12.43
2017-10-23T03:44:23.394Z,8.73
2017-10-23T03:46:50.847Z,12.80
2017-10-23T03:49:18.624Z,16.67
2017-10-23T03:51:46.872Z,13.87
2017-10-23T03:54:14.337Z,6.90
2017-10-23T03:56:41.811Z,9.83
2017-10-23T03:59:09.263Z,7.30
2017-10-23T04:01:36.715Z,9.57
2017-10-23T04:04:04.182Z,7.30
2017-10-23T04:06:31.628Z,6.97
2017-10-23T04:08:59.179Z,11.37
2017-10-23T04:11:26.710Z,15.00
2017-10-23T04:13:54.210Z,11.57
2017-10-23T04:16:22.440Z,12.17
2017-10-23T04:18:49.904Z,7.00
2017-10-23T04:21:17.394Z,10.70
2017-10-23T04:23:44.869Z,8.40
2017-10-23T04:26:12.346Z,9.80
2017-10-23T04:28:39.846Z,17.90
2017-10-23T04:31:07.326Z,9.73
2017-10-23T04:33:34.795Z,7.60
2017-10-23T04:36:02.265Z,15.77
2017-10-23T04:38:29.771Z,11.50
2017-10-23T04:40:57.213Z,8.63
2017-10-23T04:43:24.720Z,12.17
2017-10-23T04:45:52.181Z,9.80
2017-10-23T04:48:19.681Z,16.43
2017-10-23T04:50:47.156Z,13.03
2017-10-23T04:53:15.410Z,10.07
2017-10-23T04:55:42.885Z,8.90
2017-10-23T04:58:10.365Z,8.77
2017-10-23T05:00:37.852Z,11.27
2017-10-23T05:03:06.081Z,10.67
2017-10-23T05:05:33.562Z,7.10
2017-10-23T05:08:01.036Z,11.80
2017-10-23T05:10:28.552Z,14.40
2017-10-23T05:12:56.033Z,8.63
2017-10-23T05:15:23.594Z,9.10
2017-10-23T05:17:51.157Z,13.57
2017-10-23T05:20:18.672Z,11.03
2017-10-23T05:22:46.233Z,10.33
2017-10-23T05:25:13.705Z,10.70
2017-10-23T05:27:41.182Z,13.80
2017-10-23T05:30:08.653Z,9.37
2017-10-23T05:32:36.956Z,13.43
2017-10-23T05:35:04.444Z,13.67
2017-10-23T05:37:31.932Z,10.50
2017-10-23T05:39:59.411Z,8.23
2017-10-23T05:42:27.649Z,16.17
2017-10-23T05:44:55.124Z,12.60
2017-10-23T05:47:22.581Z,14.17
2017-10-23T05:49:50.056Z,9.13
2017-10-23T05:52:18.314Z,12.93
2017-10-23T05:54:45.766Z,16.30
2017-10-23T05:57:13.299Z,13.87
2017-10-23T05:59:40.771Z,17.70
2017-10-23T06:02:08.250Z,14.10
2017-10-23T06:04:35.721Z,11.80
2017-10-23T06:07:03.188Z,19.60
2017-10-23T06:09:30.678Z,18.20
2017-10-23T06:11:58.901Z,17.07
2017-10-23T06:14:27.179Z,11.10
2017-10-23T06:16:55.446Z,15.60
2017-10-23T06:19:23.097Z,15.00
2017-10-23T06:21:50.571Z,17.60
2017-10-23T06:24:18.042Z,11.67
2017-10-23T06:26:45.536Z,12.20
2017-10-23T06:29:13.016Z,10.60
2017-10-23T06:31:40.496Z,9.23
2017-10-23T06:34:07.956Z,12.93
2017-10-23T06:36:35.428Z,10.37
2017-10-23T06:39:03.684Z,9.70
2017-10-23T06:41:31.168Z,10.73
2017-10-23T06:43:59.419Z,11.07
2017-10-23T06:46:26.887Z,10.60
2017-10-23T06:48:54.361Z,12.93
2017-10-23T06:51:21.817Z,9.90
2017-10-23T06:53:49.307Z,10.77
2017-10-23T06:56:16.771Z,7.97
2017-10-23T06:58:44.261Z,10.60
2017-10-23T07:01:11.714Z,10.57
2017-10-23T07:03:39.168Z,11.80
2017-10-23T07:06:06.657Z,7.70
2017-10-23T07:08:34.890Z,12.83
2017-10-23T07:11:02.379Z,8.60
2017-10-23T07:13:30.604Z,7.03
2017-10-23T07:15:58.090Z,14.67
2017-10-23T07:18:25.559Z,7.40
2017-10-23T07:20:53.032Z,12.90
2017-10-23T07:23:20.533Z,10.90
2017-10-23T07:25:48.007Z,13.70
2017-10-23T07:28:16.230Z,14.60
2017-10-23T07:30:43.727Z,11.50
2017-10-23T07:33:11.197Z,13.63
2017-10-23T07:35:38.669Z,10.13
2017-10-23T07:38:06.142Z,10.90
2017-10-23T07:40:34.417Z,9.57
2017-10-23T07:43:02.685Z,9.97
2017-10-23T07:45:30.219Z,11.90
2017-10-23T07:47:57.707Z,12.67
2017-10-23T07:50:25.194Z,9.00
2017-10-23T07:52:52.647Z,9.03
2017-10-23T07:55:20.131Z,9.70
2017-10-23T07:57:47.613Z,9.93
2017-10-23T08:00:15.081Z,8.57
2017-10-23T08:02:42.551Z,10.73
2017-10-23T08:05:10.027Z,5.77
2017-10-23T08:07:37.865Z,3.53
2017-10-23T08:10:05.349Z,9.43
2017-10-23T08:12:32.800Z,13.17
2017-10-23T08:15:00.288Z,13.10
2017-10-23T08:17:27.768Z,13.87
2017-10-23T08:19:55.259Z,10.80
2017-10-23T08:22:22.717Z,8.80
2017-10-23T08:24:50.993Z,9.70
2017-10-23T08:27:19.265Z,10.47
2017-10-23T08:29:47.519Z,13.90
2017-10-23T08:32:14.997Z,11.70
2017-10-23T08:34:42.456Z,4.40
2017-10-23T08:37:10.731Z,14.57
2017-10-23T08:39:38.969Z,11.40
2017-10-23T08:42:06.471Z,8.20
2017-10-23T08:44:34.717Z,9.33
2017-10-23T08:47:02.212Z,12.13
2017-10-23T08:49:30.477Z,9.93
2017-10-23T08:51:58.731Z,9.47
2017-10-23T08:54:26.214Z,10.90
2017-10-23T08:56:53.676Z,5.73
2017-10-23T08:59:21.943Z,11.50
2017-10-23T09:01:50.218Z,9.40
2017-10-23T09:04:17.676Z,7.40
2017-10-23T09:06:45.946Z,10.40
2017-10-23T09:09:13.411Z,4.03
2017-10-23T09:11:41.654Z,9.43
2017-10-23T09:14:09.143Z,8.33
2017-10-23T09:16:37.415Z,5.23
2017-10-23T09:19:04.872Z,10.73
2017-10-23T09:21:32.342Z,6.83
2017-10-23T09:24:00.605Z,6.97
2017-10-23T09:26:28.898Z,8.63
2017-10-23T09:28:56.352Z,9.87
2017-10-23T09:31:23.821Z,8.37
2017-10-23T09:33:51.343Z,5.80
2017-10-23T09:36:18.808Z,6.33
2017-10-23T09:38:47.088Z,7.93
2017-10-23T09:41:15.376Z,6.17
2017-10-23T09:43:42.885Z,7.70
2017-10-23T09:46:10.465Z,6.33
2017-10-23T09:48:37.930Z,8.53
2017-10-23T09:51:05.448Z,6.90
2017-10-23T09:53:32.928Z,9.70
2017-10-23T09:56:00.416Z,5.97
2017-10-23T09:58:28.664Z,5.27
2017-10-23T10:00:56.164Z,8.30
2017-10-23T10:03:23.663Z,11.23
2017-10-23T10:05:51.155Z,5.80
2017-10-23T10:08:18.625Z,6.13
2017-10-23T10:10:46.096Z,6.60
2017-10-23T10:13:13.596Z,4.80
2017-10-23T10:15:41.097Z,8.67
2017-10-23T10:18:09.360Z,4.30
2017-10-23T10:20:36.829Z,5.10
2017-10-23T10:23:04.385Z,3.73
2017-10-23T10:25:32.718Z,8.77
2017-10-23T10:28:00.182Z,4.60
2017-10-23T10:30:27.647Z,4.60
2017-10-23T10:32:55.130Z,4.90
2017-10-23T10:35:22.602Z,9.10
2017-10-23T10:37:50.117Z,6.53
2017-10-23T10:40:17.601Z,4.40
2017-10-23T10:42:45.837Z,6.20
2017-10-23T10:45:13.352Z,4.90
2017-10-23T10:47:40.817Z,6.03
2017-10-23T10:50:08.304Z,5.40
2017-10-23T10:52:35.797Z,3.63
2017-10-23T10:55:03.271Z,6.80
2017-10-23T10:57:31.523Z,3.20
2017-10-23T10:59:58.982Z,5.47
2017-10-23T11:02:26.449Z,6.87
2017-10-23T11:04:54.690Z,6.83
2017-10-23T11:07:22.191Z,4.97
2017-10-23T11:09:50.455Z,3.67
2017-10-23T11:12:17.937Z,5.07
2017-10-23T11:14:45.465Z,3.17
2017-10-23T11:17:12.942Z,13.20
2017-10-23T11:19:41.186Z,6.00
2017-10-23T11:22:08.675Z,2.13
2017-10-23T11:24:36.902Z,7.53
2017-10-23T11:27:04.401Z,2.30
2017-10-23T11:29:32.656Z,9.87
2017-10-23T11:32:00.148Z,2.80
2017-10-23T11:34:27.713Z,4.53
2017-10-23T11:36:55.475Z,5.13
2017-10-23T11:39:22.953Z,2.70
2017-10-23T11:41:50.996Z,4.83
2017-10-23T11:44:19.322Z,6.30
2017-10-23T11:46:46.822Z,4.67
2017-10-23T11:49:14.343Z,5.50
2017-10-23T11:51:41.824Z,2.30
2017-10-23T11:54:09.367Z,2.67
2017-10-23T11:56:36.859Z,1.73
2017-10-23T11:59:04.639Z,4.13
2017-10-23T12:01:32.192Z,2.83
2017-10-23T12:03:59.713Z,11.00
2017-10-23T12:06:33.511Z,3.43
2017-10-23T12:09:01.011Z,4.37
2017-10-23T12:11:29.256Z,6.63
2017-10-23T12:13:56.737Z,3.17
2017-10-23T12:16:24.976Z,5.37
2017-10-23T12:18:52.488Z,3.40
2017-10-23T12:21:19.976Z,1.87
2017-10-23T12:23:47.472Z,4.60
2017-10-23T12:26:14.962Z,5.90
2017-10-23T12:28:42.484Z,9.23
2017-10-23T12:31:09.949Z,7.37
2017-10-23T12:33:37.490Z,6.30
2017-10-23T12:36:05.032Z,5.47
2017-10-23T12:38:32.526Z,2.50
2017-10-23T12:41:00.082Z,3.37
2017-10-23T12:43:27.554Z,3.30
2017-10-23T12:45:55.805Z,2.40
2017-10-23T12:48:24.073Z,3.50
2017-10-23T12:50:51.560Z,4.50
2017-10-23T12:53:19.053Z,6.10
2017-10-23T12:55:46.582Z,4.23
2017-10-23T12:58:14.082Z,5.20
2017-10-23T13:00:41.566Z,3.70
2017-10-23T13:03:09.056Z,2.07
2017-10-23T13:05:37.387Z,4.37
2017-10-23T13:08:05.998Z,3.47
2017-10-23T13:10:33.469Z,4.93
2017-10-23T13:13:01.747Z,3.93
2017-10-23T13:15:29.221Z,4.77
2017-10-23T13:17:56.694Z,3.77
2017-10-23T13:20:24.216Z,5.03
2017-10-23T13:22:51.703Z,6.23
2017-10-23T13:25:19.187Z,7.30
2017-10-23T13:27:46.674Z,6.40
2017-10-23T13:30:15.039Z,8.43
2017-10-23T13:32:42.688Z,3.83
2017-10-23T13:35:10.152Z,8.70
2017-10-23T13:37:37.639Z,3.70
2017-10-23T13:40:05.105Z,3.57
2017-10-23T13:42:32.631Z,3.93
2017-10-23T13:45:00.210Z,9.30
2017-10-23T13:47:27.697Z,12.07
2017-10-23T13:49:55.199Z,5.83
2017-10-23T13:52:22.677Z,5.43
2017-10-23T13:54:50.190Z,12.17
2017-10-23T13:57:17.655Z,7.97
2017-10-23T13:59:45.150Z,3.60
2017-10-23T14:02:12.628Z,6.73
2017-10-23T14:04:40.093Z,4.03
2017-10-23T14:07:07.574Z,4.17
2017-10-23T14:09:35.041Z,8.00
2017-10-23T14:12:02.538Z,4.73
2017-10-23T14:14:30.019Z,6.13
2017-10-23T14:16:58.274Z,5.87
2017-10-23T14:19:25.738Z,4.67
2017-10-23T14:21:53.471Z,2.73
2017-10-23T14:24:20.939Z,2.20
2017-10-23T14:26:48.417Z,3.87
2017-10-23T14:29:15.907Z,6.90
2017-10-23T14:31:43.390Z,4.70
2017-10-23T14:34:11.620Z,7.87
2017-10-23T14:36:39.145Z,3.40
2017-10-23T14:39:06.781Z,4.70
2017-10-23T14:41:34.353Z,4.20
2017-10-23T14:44:01.952Z,6.23
2017-10-23T14:46:29.545Z,3.73
2017-10-23T14:48:58.407Z,3.23
2017-10-23T14:51:26.103Z,5.40
2017-10-23T14:53:53.580Z,7.13
2017-10-23T14:56:21.124Z,9.83
2017-10-23T14:58:48.633Z,4.90
2017-10-23T15:01:16.163Z,5.30
2017-10-23T15:03:43.633Z,5.40
2017-10-23T15:06:11.115Z,4.23
2017-10-23T15:08:38.637Z,7.00
2017-10-23T15:11:06.108Z,17.43
2017-10-23T15:13:33.593Z,5.03
2017-10-23T15:16:01.074Z,5.23
2017-10-23T15:18:28.581Z,9.23
2017-10-23T15:20:56.855Z,9.83
2017-10-23T15:23:24.321Z,9.30
2017-10-23T15:25:51.842Z,4.40
2017-10-23T15:28:19.335Z,5.33
2017-10-23T15:30:46.836Z,6.70
2017-10-23T15:33:14.312Z,3.93
2017-10-23T15:35:41.851Z,9.97
2017-10-23T15:38:09.379Z,7.10
2017-10-23T15:40:36.831Z,2.67
2017-10-23T15:43:04.302Z,6.47
2017-10-23T15:45:31.929Z,6.00
2017-10-23T15:47:59.412Z,10.10
2017-10-23T15:50:26.910Z,8.37
2017-10-23T15:52:54.390Z,5.53
2017-10-23T15:55:21.874Z,4.50
2017-10-23T15:57:50.122Z,5.73
2017-10-23T16:00:17.615Z,5.87
2017-10-23T16:02:45.081Z,4.97
2017-10-23T16:05:12.568Z,4.30
2017-10-23T16:07:40.043Z,2.10
2017-10-23T16:10:07.529Z,2.90
2017-10-23T16:12:35.013Z,7.27
2017-10-23T16:15:04.080Z,3.50
2017-10-23T16:17:31.535Z,4.60
2017-10-23T16:19:59.016Z,8.93
2017-10-23T16:22:27.272Z,15.37
2017-10-23T16:24:54.821Z,9.37
2017-10-23T16:27:22.299Z,4.40
2017-10-23T16:29:49.771Z,3.37
2017-10-23T16:32:17.237Z,3.97
2017-10-23T16:34:44.710Z,9.30
2017-10-23T16:37:12.243Z,7.73
2017-10-23T16:39:39.744Z,9.93
2017-10-23T16:42:07.223Z,5.43
2017-10-23T16:44:34.689Z,4.10
2017-10-23T16:47:02.229Z,17.23
2017-10-23T16:49:29.712Z,11.30
2017-10-23T16:51:57.214Z,23.47
2017-10-23T16:54:24.701Z,30.90
2017-10-23T16:56:52.183Z,34.90
2017-10-23T16:59:20.421Z,26.93
2017-10-23T17:01:47.934Z,57.73
2017-10-23T17:04:15.424Z,49.83
2017-10-23T17:06:42.946Z,22.20
2017-10-23T17:09:11.210Z,15.10
2017-10-23T17:11:38.685Z,13.20
2017-10-23T17:14:06.146Z,9.60
2017-10-23T17:16:33.628Z,4.93
2017-10-23T17:19:01.140Z,5.93
2017-10-23T17:21:28.854Z,3.73
2017-10-23T17:23:56.549Z,6.40
2017-10-23T17:26:24.023Z,8.00
2017-10-23T17:28:51.523Z,8.50
2017-10-23T17:31:19.022Z,6.33
2017-10-23T17:33:46.503Z,10.17
2017-10-23T17:36:14.749Z,11.43
2017-10-23T17:38:42.232Z,18.20
2017-10-23T17:41:09.732Z,8.00
2017-10-23T17:43:37.216Z,10.10
2017-10-23T17:46:04.713Z,10.77
2017-10-23T17:48:32.237Z,18.33
2017-10-23T17:50:59.735Z,9.53
2017-10-23T17:53:27.247Z,5.00
2017-10-23T17:55:54.731Z,6.80
2017-10-23T17:58:23.021Z,10.33
2017-10-23T18:00:50.495Z,13.17
2017-10-23T18:03:18.673Z,13.20
2017-10-23T18:05:46.173Z,9.60
2017-10-23T18:08:13.910Z,7.70
2017-10-23T18:10:41.432Z,6.00
2017-10-23T18:13:08.922Z,8.33
2017-10-23T18:15:36.410Z,8.80
2017-10-23T18:18:03.903Z,11.50
2017-10-23T18:20:32.030Z,4.67
2017-10-23T18:22:59.523Z,6.70
2017-10-23T18:25:27.138Z,6.17
2017-10-23T18:27:54.641Z,7.30
2017-10-23T18:30:23.205Z,8.07
2017-10-23T18:32:50.667Z,12.50
2017-10-23T18:35:18.133Z,6.70
2017-10-23T18:37:45.868Z,7.07
2017-10-23T18:40:14.117Z,5.93
2017-10-23T18:42:41.633Z,9.27
2017-10-23T18:45:09.133Z,11.43
2017-10-23T18:47:36.630Z,6.77
2017-10-23T18:50:04.100Z,9.23
2017-10-23T18:52:32.442Z,7.17
2017-10-23T18:54:59.941Z,9.70
2017-10-23T18:57:28.216Z,8.30
2017-10-23T18:59:55.735Z,5.70
2017-10-23T19:02:23.206Z,7.67
2017-10-23T19:04:50.696Z,8.93
2017-10-23T19:07:21.524Z,5.20
2017-10-23T19:09:51.507Z,5.83
2017-10-23T19:12:18.999Z,5.13
2017-10-23T19:14:46.463Z,5.50
2017-10-23T19:17:14.741Z,6.13
2017-10-23T19:19:43.049Z,7.53
2017-10-23T19:22:10.563Z,6.20
2017-10-23T19:24:38.276Z,6.63
2017-10-23T19:27:05.813Z,6.77
2017-10-23T19:29:34.026Z,5.33
2017-10-23T19:32:01.494Z,5.90
2017-10-23T19:34:29.794Z,7.30
2017-10-23T19:36:57.257Z,6.60
2017-10-23T19:39:25.519Z,6.60
2017-10-23T19:41:52.984Z,4.93
2017-10-23T19:44:20.447Z,8.40
2017-10-23T19:46:48.686Z,13.10
2017-10-23T19:49:16.162Z,9.27
2017-10-23T19:51:43.625Z,11.50
2017-10-23T19:54:11.371Z,10.87
2017-10-23T19:56:38.855Z,11.90
2017-10-23T19:59:07.118Z,11.20
2017-10-23T20:01:34.595Z,12.30
2017-10-23T20:04:02.049Z,8.07
2017-10-23T20:06:29.533Z,11.47
2017-10-23T20:08:57.001Z,7.00
2017-10-23T20:11:24.491Z,6.33
2017-10-23T20:13:51.972Z,11.37
2017-10-23T20:16:20.549Z,7.90
2017-10-23T20:18:48.031Z,10.23
2017-10-23T20:21:15.511Z,9.00
2017-10-23T20:23:42.968Z,8.90
2017-10-23T20:26:10.450Z,9.70
2017-10-23T20:28:37.930Z,9.63
2017-10-23T20:31:05.374Z,11.20
2017-10-23T20:33:32.856Z,10.60
2017-10-23T20:36:01.095Z,13.43
2017-10-23T20:38:28.895Z,9.00
2017-10-23T20:40:57.129Z,8.93
2017-10-23T20:43:25.206Z,8.70
2017-10-23T20:45:52.761Z,7.33
2017-10-23T20:48:20.274Z,8.37
2017-10-23T20:50:47.756Z,7.47
2017-10-23T20:53:16.000Z,7.60
2017-10-23T20:55:44.240Z,8.57
2017-10-23T20:58:11.720Z,12.40
2017-10-23T21:00:39.478Z,7.47
2017-10-23T21:03:06.934Z,8.77
2017-10-23T21:05:34.396Z,9.93
2017-10-23T21:08:01.890Z,15.33
2017-10-23T21:10:29.335Z,9.43
2017-10-23T21:12:56.829Z,6.47
2017-10-23T21:28:31.576Z,11.60
2017-10-23T21:31:08.200Z,7.53
2017-10-23T21:33:35.682Z,8.10
2017-10-23T21:36:03.168Z,8.60
2017-10-23T21:38:30.622Z,8.50
2017-10-23T21:40:58.907Z,10.57
2017-10-23T21:43:26.455Z,20.17
2017-10-23T21:45:53.935Z,13.53
2017-10-23T21:48:21.427Z,12.33
2017-10-23T21:50:48.903Z,13.10
2017-10-23T21:53:16.373Z,14.70
2017-10-23T21:55:43.848Z,12.87
2017-10-23T21:58:11.313Z,11.80
2017-10-23T22:00:38.800Z,13.80
2017-10-23T22:03:06.265Z,13.03
2017-10-23T22:05:33.872Z,12.00
2017-10-23T22:08:01.342Z,10.97
2017-10-23T22:10:28.818Z,12.27
2017-10-23T22:12:56.327Z,13.97
2017-10-23T22:15:23.949Z,12.70
2017-10-23T22:17:51.416Z,13.63
2017-10-23T22:20:18.878Z,12.57
2017-10-23T22:22:46.346Z,11.23
2017-10-23T22:25:13.855Z,12.73
2017-10-23T22:27:42.087Z,11.67
2017-10-23T22:30:09.558Z,9.70
2017-10-23T22:32:37.022Z,11.33
2017-10-23T22:35:04.496Z,11.10
2017-10-23T22:37:31.968Z,12.03
2017-10-23T22:39:59.456Z,9.70
2017-10-23T22:42:27.686Z,8.33
2017-10-23T22:44:55.911Z,11.23
2017-10-23T22:47:24.149Z,8.53
2017-10-23T22:49:51.601Z,10.13
2017-10-23T22:52:19.106Z,9.87
2017-10-23T22:54:50.995Z,10.23
2017-10-23T22:57:18.695Z,10.73
2017-10-23T22:59:46.199Z,9.97
2017-10-23T23:02:13.675Z,10.37
2017-10-23T23:04:41.134Z,12.50
2017-10-23T23:07:08.588Z,10.33
2017-10-23T23:09:36.065Z,10.80
2017-10-23T23:12:04.245Z,10.77
2017-10-23T23:14:32.499Z,11.67
2017-10-23T23:16:59.978Z,14.07
2017-10-23T23:19:27.465Z,11.23
2017-10-23T23:21:54.943Z,13.70
2017-10-23T23:24:22.448Z,9.07
2017-10-23T23:26:50.687Z,8.73
2017-10-23T23:29:18.145Z,8.90
2017-10-23T23:31:45.616Z,9.47
2017-10-23T23:34:13.848Z,8.90
2017-10-23T23:36:41.329Z,13.03
2017-10-23T23:39:08.844Z,9.40
2017-10-23T23:41:36.289Z,10.20
2017-10-23T23:44:03.779Z,10.00
2017-10-23T23:46:31.240Z,7.10
2017-10-23T23:48:59.468Z,8.50
2017-10-23T23:51:27.708Z,9.37
2017-10-23T23:53:55.170Z,10.83
2017-10-23T23:56:22.640Z,10.03
2017-10-23T23:58:50.085Z,8.03
